Time;durP1;ratioP1;P1;durP2;ratioP2;P2;SDS_P1;SDS_P2;PMS_P1;PMS_P2;Temp;Humidity;BMP_temperature;BMP_pressure;BME280_temperature;BME280_humidity;BME280_pressure;Samples;Min_cycle;Max_cycle;Signal;HPM_P1;HPM_P2
2023/02/21 02:14:44;;;;;;;;;;;9.40;99.90;;;;;;6149865;23;20028;-90
2023/02/21 02:17:28;;;;;;;0.10;0.10;;;9.40;99.90;;;;;;6173563;23;19908;-91
2023/02/21 02:20:23;;;;;;;0.10;0.10;;;9.40;99.90;;;;;;6148992;23;20002;-91
2023/02/21 02:22:52;;;;;;;0.00;0.00;;;9.50;99.90;;;;;;6149207;23;20014;-91
2023/02/21 02:25:48;;;;;;;0.10;0.10;;;9.40;99.90;;;;;;6148025;23;20020;-91
2023/02/21 02:28:44;;;;;;;0.10;0.10;;;9.50;99.90;;;;;;6148752;23;20010;-91
2023/02/21 02:31:20;;;;;;;0.10;0.10;;;9.50;99.90;;;;;;6171419;23;20016;-90
2023/02/21 02:33:59;;;;;;;0.10;0.10;;;9.30;99.90;;;;;;6149184;23;20006;-91
2023/02/21 02:36:42;;;;;;;0.05;0.05;;;9.50;99.90;;;;;;6148590;23;20267;-90
2023/02/21 02:39:31;;;;;;;0.00;0.00;;;9.50;99.90;;;;;;6150265;23;20458;-90
2023/02/21 02:42:21;;;;;;;0.10;0.10;;;9.50;99.90;;;;;;6148626;23;20010;-90
2023/02/21 02:44:56;;;;;;;0.00;0.00;;;9.50;99.90;;;;;;6148551;23;20016;-91
2023/02/21 02:47:27;;;;;;;0.10;0.10;;;9.60;99.90;;;;;;6148505;23;20010;-91
2023/02/21 02:49:54;;;;;;;0.10;0.10;;;9.50;99.90;;;;;;6150270;23;20335;-90
2023/02/21 02:52:20;;;;;;;0.00;0.00;;;;;;;;;;6151752;23;20459;-89
2023/02/21 02:54:57;;;;;;;0.00;0.00;;;9.60;99.90;;;;;;6150901;23;20002;-92
2023/02/21 02:57:23;;;;;;;0.00;0.00;;;10.30;99.90;;;;;;6147563;23;20477;-89
2023/02/21 02:59:50;;;;;;;0.10;0.10;;;;;;;;;;6149549;23;20006;-91
2023/02/21 03:02:34;;;;;;;0.00;0.00;;;9.70;99.90;;;;;;6150013;23;20456;-91
2023/02/21 03:05:22;;;;;;;0.00;0.00;;;9.70;99.90;;;;;;6150844;23;20002;-91
2023/02/21 03:08:17;;;;;;;0.10;0.10;;;9.60;99.90;;;;;;6150124;23;20075;-91
2023/02/21 03:11:06;;;;;;;0.08;0.08;;;9.60;99.90;;;;;;6151290;23;20049;-91
2023/02/21 03:13:41;;;;;;;0.10;0.10;;;9.70;99.90;;;;;;6149484;23;20020;-90
2023/02/21 03:16:22;;;;;;;0.00;0.00;;;9.70;99.90;;;;;;6148514;23;20008;-91
2023/02/21 03:18:49;;;;;;;0.10;0.10;;;9.70;99.90;;;;;;6151185;23;20006;-91
2023/02/21 03:21:24;;;;;;;0.00;0.00;;;9.60;99.90;;;;;;6150096;23;20008;-91
2023/02/21 03:23:52;;;;;;;0.10;0.10;;;9.70;99.90;;;;;;6149998;23;20013;-90
2023/02/21 03:26:19;;;;;;;0.10;0.10;;;;;;;;;;6151151;23;20084;-91
2023/02/21 03:28:46;;;;;;;0.10;0.10;;;9.70;99.90;;;;;;6150324;23;20001;-90
2023/02/21 03:31:15;;;;;;;0.10;0.10;;;9.70;99.90;;;;;;6150190;23;20009;-91
2023/02/21 03:33:41;;;;;;;0.10;0.10;;;9.50;99.90;;;;;;6151258;23;20008;-91
2023/02/21 03:36:08;;;;;;;0.10;0.10;;;9.70;99.90;;;;;;6149508;23;20002;-90
2023/02/21 03:38:34;;;;;;;0.00;0.00;;;;;;;;;;6176690;23;20005;-90
2023/02/21 03:41:00;;;;;;;0.10;0.10;;;;;;;;;;6151451;23;20040;-91
2023/02/21 03:43:26;;;;;;;0.00;0.00;;;10.00;99.90;;;;;;6149473;23;20013;-90
2023/02/21 03:45:52;;;;;;;0.10;0.10;;;;;;;;;;6150984;23;20009;-91
2023/02/21 03:48:17;;;;;;;0.10;0.10;;;;;;;;;;6150570;23;19998;-91
2023/02/21 03:50:43;;;;;;;0.10;0.10;;;9.60;99.90;;;;;;6149856;23;20017;-90
2023/02/21 03:53:09;;;;;;;0.10;0.10;;;9.50;99.90;;;;;;6150020;23;20334;-91
2023/02/21 03:55:35;;;;;;;0.10;0.10;;;;;;;;;;6150940;23;20006;-91
2023/02/21 03:58:01;;;;;;;0.10;0.10;;;9.60;99.90;;;;;;6148935;23;20456;-91
2023/02/21 04:00:27;;;;;;;0.00;0.00;;;;;;;;;;6150085;23;20017;-91
2023/02/21 04:02:53;;;;;;;0.00;0.00;;;;;;;;;;6149685;23;20756;-91
2023/02/21 04:05:18;;;;;;;0.10;0.10;;;9.60;99.90;;;;;;6150225;23;20072;-90
2023/02/21 04:07:44;;;;;;;0.00;0.00;;;9.60;99.90;;;;;;6150060;23;20013;-91
2023/02/21 04:10:09;;;;;;;0.00;0.00;;;9.70;99.90;;;;;;6148842;23;20029;-91
2023/02/21 04:12:35;;;;;;;0.10;0.10;;;;;;;;;;6148480;23;20005;-91
2023/02/21 04:15:01;;;;;;;0.00;0.00;;;;;;;;;;6149397;23;20040;-91
2023/02/21 04:17:27;;;;;;;0.08;0.08;;;9.70;99.90;;;;;;6150920;23;20400;-91
2023/02/21 04:19:53;;;;;;;0.00;0.00;;;;;;;;;;6149676;23;20046;-92
2023/02/21 04:22:18;;;;;;;0.10;0.10;;;9.70;99.90;;;;;;6148783;23;20388;-91
2023/02/21 04:24:46;;;;;;;0.10;0.10;;;;;;;;;;6150968;23;20013;-91
2023/02/21 04:27:12;;;;;;;0.10;0.10;;;;;;;;;;6149246;23;20088;-90
2023/02/21 04:29:38;;;;;;;0.10;0.10;;;9.60;99.90;;;;;;6148803;23;20009;-90
2023/02/21 04:32:04;;;;;;;0.00;0.00;;;9.60;99.90;;;;;;6149744;23;20088;-91
2023/02/21 04:34:29;;;;;;;0.10;0.10;;;;;;;;;;6174758;23;20350;-91
2023/02/21 04:36:55;;;;;;;0.10;0.10;;;;;;;;;;6149333;23;20036;-91
2023/02/21 04:39:21;;;;;;;0.00;0.00;;;;;;;;;;6149097;23;20442;-90
2023/02/21 04:41:47;;;;;;;0.00;0.00;;;;;;;;;;6149617;23;20009;-91
2023/02/21 04:44:13;;;;;;;0.00;0.00;;;9.60;99.90;;;;;;6149698;23;20017;-91
2023/02/21 04:46:39;;;;;;;0.10;0.10;;;;;;;;;;6150187;23;20002;-90
2023/02/21 04:49:04;;;;;;;0.10;0.10;;;9.50;99.90;;;;;;6151567;23;20458;-90
2023/02/21 04:51:30;;;;;;;0.00;0.00;;;9.50;99.90;;;;;;6149531;23;20002;-90
2023/02/21 04:53:56;;;;;;;0.00;0.00;;;9.60;99.90;;;;;;6149682;23;20002;-90
2023/02/21 04:56:24;;;;;;;0.10;0.10;;;9.50;99.90;;;;;;6149596;23;20405;-90
2023/02/21 04:58:50;;;;;;;0.00;0.00;;;;;;;;;;6146921;23;20566;-91
2023/02/21 05:01:17;;;;;;;0.00;0.00;;;9.70;99.90;;;;;;6148715;23;20029;-91
2023/02/21 05:03:43;;;;;;;0.00;0.00;;;;;;;;;;6149143;23;20006;-91
2023/02/21 05:06:09;;;;;;;0.00;0.00;;;;;;;;;;6149489;23;20009;-90
2023/02/21 05:08:35;;;;;;;0.10;0.10;;;9.60;99.90;;;;;;6148478;23;20263;-91
2023/02/21 05:11:01;;;;;;;0.10;0.10;;;;;;;;;;6148250;23;20013;-90
2023/02/21 05:13:27;;;;;;;0.08;0.08;;;9.50;99.90;;;;;;6148437;23;20013;-90
2023/02/21 05:15:53;;;;;;;0.10;0.10;;;;;;;;;;6149795;23;20072;-91
2023/02/21 05:18:22;;;;;;;0.10;0.10;;;;;;;;;;6174137;23;20001;-90
2023/02/21 05:20:48;;;;;;;0.00;0.00;;;9.50;99.90;;;;;;6146979;23;20052;-90
2023/02/21 05:23:15;;;;;;;0.10;0.10;;;9.50;99.90;;;;;;6146840;23;20005;-91
2023/02/21 05:25:42;;;;;;;0.10;0.10;;;;;;;;;;6149088;23;20017;-89
2023/02/21 05:28:08;;;;;;;0.10;0.10;;;;;;;;;;6147267;23;20408;-90
2023/02/21 05:30:33;;;;;;;0.05;0.05;;;9.50;99.90;;;;;;6150635;23;20013;-91
2023/02/21 05:32:59;;;;;;;0.00;0.00;;;;;;;;;;6149991;23;20350;-91
2023/02/21 05:35:25;;;;;;;0.00;0.00;;;;;;;;;;6150310;23;20346;-90
2023/02/21 05:37:51;;;;;;;0.10;0.10;;;9.60;99.90;;;;;;6150208;23;20370;-91
2023/02/21 05:40:17;;;;;;;0.00;0.00;;;;;;;;;;6149742;23;20045;-91
2023/02/21 05:42:43;;;;;;;0.03;0.03;;;9.50;99.90;;;;;;6146713;23;20006;-90
2023/02/21 05:45:10;;;;;;;0.00;0.00;;;9.40;99.90;;;;;;6150353;23;20012;-91
2023/02/21 05:47:36;;;;;;;0.10;0.10;;;;;;;;;;6174441;23;20424;-91
2023/02/21 05:50:03;;;;;;;0.00;0.00;;;9.50;99.90;;;;;;6172424;23;20444;-91
2023/02/21 05:52:29;;;;;;;0.00;0.00;;;9.50;99.90;;;;;;6173446;23;20023;-91
2023/02/21 05:54:54;;;;;;;0.08;0.08;;;;;;;;;;6150097;23;20005;-91
2023/02/21 05:57:20;;;;;;;0.00;0.00;;;9.60;99.90;;;;;;6148963;23;20013;-91
2023/02/21 05:59:47;;;;;;;0.00;0.00;;;;;;;;;;6149856;23;19998;-91
2023/02/21 06:02:14;;;;;;;0.10;0.10;;;9.50;99.90;;;;;;6174246;23;20013;-91
2023/02/21 06:04:39;;;;;;;0.10;0.10;;;9.20;99.90;;;;;;6148920;23;20066;-90
2023/02/21 06:07:05;;;;;;;0.00;0.00;;;9.40;99.90;;;;;;6144960;23;20006;-90
2023/02/21 06:09:30;;;;;;;0.10;0.10;;;9.40;99.90;;;;;;6175804;23;20504;-91
2023/02/21 06:11:56;;;;;;;0.00;0.00;;;9.40;99.90;;;;;;6148471;23;20505;-90
2023/02/21 06:14:21;;;;;;;0.10;0.10;;;9.90;99.90;;;;;;6150488;23;20020;-91
2023/02/21 06:16:47;;;;;;;0.10;0.10;;;9.40;99.90;;;;;;6150012;23;19998;-90
2023/02/21 06:19:15;;;;;;;0.00;0.00;;;9.50;99.90;;;;;;6173342;23;20009;-90
2023/02/21 06:21:41;;;;;;;0.10;0.10;;;;;;;;;;6150276;23;20031;-90
2023/02/21 06:24:07;;;;;;;0.10;0.10;;;;;;;;;;6148394;23;20394;-90
2023/02/21 06:26:33;;;;;;;0.10;0.10;;;;;;;;;;6175294;23;20009;-90
2023/02/21 06:28:59;;;;;;;0.00;0.00;;;9.50;99.90;;;;;;6150654;23;20012;-91
2023/02/21 06:31:25;;;;;;;0.00;0.00;;;9.90;99.90;;;;;;6151664;23;20009;-91
2023/02/21 06:33:51;;;;;;;0.00;0.00;;;;;;;;;;6153125;23;20049;-91
2023/02/21 06:36:22;;;;;;;0.00;0.00;;;9.50;99.90;;;;;;6153135;23;20330;-91
2023/02/21 06:38:54;;;;;;;0.10;0.10;;;9.50;99.90;;;;;;6152795;23;20248;-91
2023/02/21 06:41:23;;;;;;;0.10;0.10;;;9.60;99.90;;;;;;6153041;23;20353;-91
2023/02/21 06:43:49;;;;;;;0.00;0.00;;;9.60;99.90;;;;;;6153004;23;20049;-91
2023/02/21 06:46:20;;;;;;;0.10;0.10;;;9.90;99.90;;;;;;6152380;23;20469;-91
2023/02/21 06:48:47;;;;;;;0.00;0.00;;;;;;;;;;6153202;23;19997;-88
2023/02/21 06:51:13;;;;;;;0.10;0.10;;;9.60;99.90;;;;;;6152415;23;20001;-91
2023/02/21 06:53:39;;;;;;;0.00;0.00;;;;;;;;;;6153416;23;20013;-90
2023/02/21 06:56:05;;;;;;;0.10;0.10;;;;;;;;;;6152536;23;20052;-91
2023/02/21 06:58:31;;;;;;;0.10;0.10;;;;;;;;;;6152712;23;20002;-89
2023/02/21 07:00:57;;;;;;;0.00;0.00;;;;;;;;;;6151987;23;20016;-90
2023/02/21 07:03:23;;;;;;;0.10;0.10;;;;;;;;;;6152969;23;20339;-90
2023/02/21 07:05:49;;;;;;;0.10;0.10;;;9.60;99.90;;;;;;6153036;23;20417;-90
2023/02/21 07:08:14;;;;;;;0.00;0.00;;;9.40;99.90;;;;;;6153486;23;20009;-91
2023/02/21 07:10:40;;;;;;;0.10;0.10;;;;;;;;;;6151769;23;20494;-90
2023/02/21 07:13:06;;;;;;;0.05;0.05;;;9.60;99.90;;;;;;6152689;23;20021;-91
2023/02/21 07:15:32;;;;;;;0.00;0.00;;;;;;;;;;6153025;23;20370;-91
2023/02/21 07:17:57;;;;;;;0.10;0.10;;;9.60;99.90;;;;;;6152595;23;20434;-91
2023/02/21 07:20:23;;;;;;;0.00;0.00;;;;;;;;;;6152357;23;20006;-91
2023/02/21 07:22:49;;;;;;;0.00;0.00;;;9.50;99.90;;;;;;6152975;23;20415;-89
2023/02/21 07:25:16;;;;;;;0.00;0.00;;;9.60;99.90;;;;;;6153282;23;20006;-91
2023/02/21 07:27:42;;;;;;;0.00;0.00;;;;;;;;;;6152673;23;20005;-91
2023/02/21 07:30:09;;;;;;;0.00;0.00;;;9.60;99.90;;;;;;6151887;23;20013;-91
2023/02/21 07:32:35;;;;;;;0.00;0.00;;;;;;;;;;6152776;23;20005;-91
2023/02/21 07:35:01;;;;;;;0.10;0.10;;;9.70;99.90;;;;;;6152084;23;20080;-91
2023/02/21 07:37:26;;;;;;;0.00;0.00;;;9.70;99.90;;;;;;6152690;23;20005;-90
2023/02/21 07:39:52;;;;;;;0.00;0.00;;;9.80;99.90;;;;;;6152985;23;20004;-90
2023/02/21 07:42:18;;;;;;;0.10;0.10;;;9.10;99.90;;;;;;6151828;23;20359;-90
2023/02/21 07:44:44;;;;;;;0.10;0.10;;;;;;;;;;6152652;23;20005;-90
2023/02/21 07:47:10;;;;;;;0.10;0.10;;;9.70;99.90;;;;;;6152007;23;20297;-91
2023/02/21 07:49:40;;;;;;;0.00;0.00;;;9.70;99.90;;;;;;6152932;23;20032;-90
2023/02/21 07:52:06;;;;;;;0.10;0.10;;;9.70;99.90;;;;;;6176900;23;20093;-91
2023/02/21 07:54:32;;;;;;;0.03;0.03;;;9.60;99.90;;;;;;6151187;23;20041;-90
2023/02/21 07:56:58;;;;;;;0.00;0.00;;;;;;;;;;6151370;23;20501;-90
2023/02/21 07:59:24;;;;;;;0.00;0.00;;;;;;;;;;6151023;23;20052;-91
2023/02/21 08:01:50;;;;;;;0.08;0.08;;;;;;;;;;6175468;23;20025;-90
2023/02/21 08:04:20;;;;;;;0.10;0.10;;;9.70;99.90;;;;;;6150474;23;20328;-91
2023/02/21 08:06:46;;;;;;;0.00;0.00;;;;;;;;;;6151899;23;20450;-90
2023/02/21 08:09:12;;;;;;;0.00;0.00;;;;;;;;;;6151571;23;20040;-91
2023/02/21 08:11:39;;;;;;;0.00;0.00;;;9.70;99.90;;;;;;6151686;23;20006;-91
2023/02/21 08:14:04;;;;;;;0.00;0.00;;;9.70;99.90;;;;;;6151499;23;20017;-90
2023/02/21 08:16:30;;;;;;;0.00;0.00;;;9.70;99.90;;;;;;6151760;23;20008;-90
2023/02/21 08:18:57;;;;;;;0.03;0.03;;;9.80;99.90;;;;;;6151508;23;20018;-90
2023/02/21 08:21:23;;;;;;;0.00;0.00;;;;;;;;;;6149229;23;20101;-90
2023/02/21 08:23:53;;;;;;;0.05;0.05;;;9.80;99.90;;;;;;6151392;23;20009;-90
2023/02/21 08:26:19;;;;;;;0.00;0.00;;;;;;;;;;6173790;23;20439;-89
2023/02/21 08:28:45;;;;;;;0.00;0.00;;;;;;;;;;6147898;23;20054;-90
2023/02/21 08:31:11;;;;;;;0.00;0.00;;;;;;;;;;6147716;23;20002;-90
2023/02/21 08:33:37;;;;;;;0.10;0.10;;;;;;;;;;6173451;23;20009;-90
2023/02/21 08:36:03;;;;;;;0.10;0.10;;;;;;;;;;6149480;23;20462;-91
2023/02/21 08:38:29;;;;;;;0.00;0.00;;;10.00;99.90;;;;;;6173956;23;20016;-90
2023/02/21 08:40:54;;;;;;;0.00;0.00;;;10.00;99.90;;;;;;6149003;23;20006;-91
2023/02/21 08:43:20;;;;;;;0.10;0.10;;;;;;;;;;6149089;23;20005;-91
2023/02/21 08:45:46;;;;;;;0.00;0.00;;;9.90;99.90;;;;;;6148362;23;20005;-90
2023/02/21 08:48:12;;;;;;;0.10;0.10;;;10.00;99.90;;;;;;6150094;23;20017;-90
2023/02/21 08:50:38;;;;;;;0.00;0.00;;;;;;;;;;6148794;23;20013;-91
2023/02/21 08:53:03;;;;;;;0.00;0.00;;;9.90;99.90;;;;;;6146904;23;20005;-91
2023/02/21 08:55:29;;;;;;;0.00;0.00;;;;;;;;;;6149069;23;20005;-91
2023/02/21 08:57:55;;;;;;;0.03;0.03;;;10.00;99.90;;;;;;6148703;23;20006;-90
2023/02/21 09:00:22;;;;;;;0.10;0.10;;;9.90;99.90;;;;;;6149475;23;20477;-91
2023/02/21 09:02:51;;;;;;;0.10;0.10;;;9.90;99.90;;;;;;6174120;23;20009;-91
2023/02/21 09:05:23;;;;;;;0.10;0.10;;;9.80;99.90;;;;;;6148867;23;20013;-90
2023/02/21 09:07:50;;;;;;;0.00;0.00;;;10.00;99.90;;;;;;6149701;23;20017;-90
2023/02/21 09:10:17;;;;;;;0.00;0.00;;;10.10;99.90;;;;;;6145329;23;20350;-90
2023/02/21 09:12:43;;;;;;;0.00;0.00;;;;;;;;;;6146895;23;20014;-91
2023/02/21 09:15:09;;;;;;;0.00;0.00;;;10.10;99.90;;;;;;6147441;23;20021;-90
2023/02/21 09:17:35;;;;;;;0.00;0.00;;;10.00;99.90;;;;;;6148048;23;20006;-91
2023/02/21 09:20:03;;;;;;;0.00;0.00;;;10.20;99.90;;;;;;6149142;23;20312;-91
2023/02/21 09:22:30;;;;;;;0.00;0.00;;;10.10;99.90;;;;;;6173182;23;20504;-90
2023/02/21 09:24:56;;;;;;;0.00;0.00;;;;;;;;;;6148986;23;20006;-89
2023/02/21 09:27:35;;;;;;;0.00;0.00;;;10.30;99.90;;;;;;6172092;23;20036;-91
2023/02/21 09:30:22;;;;;;;0.00;0.00;;;10.20;99.90;;;;;;6148980;23;20006;-91
2023/02/21 09:32:48;;;;;;;0.00;0.00;;;;;;;;;;6146435;23;20001;-90
2023/02/21 09:35:15;;;;;;;0.00;0.00;;;;;;;;;;6148196;23;20009;-90
2023/02/21 09:37:42;;;;;;;0.00;0.00;;;10.40;99.90;;;;;;6149282;23;20002;-90
2023/02/21 09:40:20;;;;;;;0.00;0.00;;;12.00;99.90;;;;;;6148201;23;20354;-91
2023/02/21 09:42:46;;;;;;;0.00;0.00;;;;;;;;;;6148810;23;20009;-90
2023/02/21 09:45:16;;;;;;;0.00;0.00;;;10.60;99.90;;;;;;6175147;23;20016;-90
2023/02/21 09:47:43;;;;;;;0.00;0.00;;;12.90;99.90;;;;;;6148924;23;20454;-90
2023/02/21 09:50:14;;;;;;;0.00;0.00;;;10.60;99.90;;;;;;6148767;23;20017;-90
2023/02/21 09:52:41;;;;;;;0.08;0.08;;;10.80;99.90;;;;;;6147230;23;20053;-91
2023/02/21 09:55:34;;;;;;;0.00;0.00;;;10.80;99.90;;;;;;6148782;23;20093;-90
2023/02/21 09:58:00;;;;;;;0.00;0.00;;;;;;;;;;6142171;23;20005;-89
2023/02/21 10:00:36;;;;;;;0.00;0.00;;;10.90;99.90;;;;;;6151581;23;20006;-90
2023/02/21 10:03:37;;;;;;;0.00;0.00;;;11.00;99.90;;;;;;6152404;23;20028;-91
2023/02/21 10:06:32;;;;;;;0.00;0.00;;;11.00;99.90;;;;;;6152301;23;20439;-91
2023/02/21 10:09:22;;;;;;;0.10;0.10;;;11.20;99.90;;;;;;6153915;23;20610;-91
2023/02/21 10:12:07;;;;;;;0.00;0.00;;;11.10;99.90;;;;;;6153902;23;20009;-90
2023/02/21 10:14:55;;;;;;;0.00;0.00;;;11.20;99.90;;;;;;6153715;23;20010;-90
2023/02/21 10:17:39;;;;;;;0.10;0.10;;;11.40;99.90;;;;;;6153727;23;20005;-91
2023/02/21 10:20:26;;;;;;;0.00;0.00;;;11.40;99.90;;;;;;6153003;23;20005;-90
2023/02/21 10:22:53;;;;;;;0.00;0.00;;;11.50;99.90;;;;;;6153577;23;20017;-90
2023/02/21 10:25:30;;;;;;;0.00;0.00;;;11.40;99.90;;;;;;6152566;23;20560;-90
2023/02/21 10:27:57;;;;;;;0.00;0.00;;;11.40;99.90;;;;;;6151781;23;20451;-91
2023/02/21 10:30:42;;;;;;;0.00;0.00;;;10.40;99.90;;;;;;6149408;23;20334;-91
2023/02/21 10:33:08;;;;;;;0.00;0.00;;;;;;;;;;6152967;23;20013;-89
2023/02/21 10:35:35;;;;;;;0.10;0.10;;;11.30;99.90;;;;;;6152307;23;20048;-91
2023/02/21 10:38:10;;;;;;;0.00;0.00;;;11.30;99.90;;;;;;6154373;23;20009;-89
2023/02/21 10:40:42;;;;;;;0.00;0.00;;;11.30;99.90;;;;;;6154570;23;20511;-91
2023/02/21 10:43:18;;;;;;;0.10;0.10;;;11.20;99.90;;;;;;6151667;23;20006;-92
2023/02/21 10:45:52;;;;;;;0.00;0.00;;;11.20;99.90;;;;;;6153556;23;20009;-90
2023/02/21 10:48:20;;;;;;;0.00;0.00;;;11.20;99.90;;;;;;6151886;23;20006;-91
2023/02/21 10:51:11;;;;;;;0.00;0.00;;;11.20;99.90;;;;;;6152615;23;20331;-91
2023/02/21 10:53:39;;;;;;;0.03;0.03;;;11.20;99.90;;;;;;6152715;23;20010;-90
2023/02/21 10:56:14;;;;;;;0.00;0.00;;;11.40;99.90;;;;;;6151602;23;20001;-90
2023/02/21 10:58:59;;;;;;;0.00;0.00;;;11.40;99.90;;;;;;6151952;23;20002;-91
2023/02/21 11:01:30;;;;;;;0.00;0.00;;;11.40;99.90;;;;;;6153020;23;20002;-91
2023/02/21 11:03:59;;;;;;;0.00;0.00;;;11.40;99.90;;;;;;6153660;23;20435;-90
2023/02/21 11:06:37;;;;;;;0.10;0.10;;;11.30;99.90;;;;;;6152994;23;20434;-91
2023/02/21 11:09:41;;;;;;;0.03;0.03;;;11.30;99.90;;;;;;6152318;23;20084;-89
2023/02/21 11:12:30;;;;;;;0.00;0.00;;;11.30;99.90;;;;;;6151457;23;20029;-92
2023/02/21 11:14:56;;;;;;;0.00;0.00;;;;;;;;;;6150877;23;20010;-91
2023/02/21 11:17:33;;;;;;;0.00;0.00;;;11.50;99.90;;;;;;6150500;23;20323;-91
2023/02/21 11:20:13;;;;;;;0.00;0.00;;;11.50;99.90;;;;;;6152121;23;20009;-91
2023/02/21 11:22:42;;;;;;;0.00;0.00;;;11.20;99.90;;;;;;6151662;23;20041;-91
2023/02/21 11:25:27;;;;;;;0.00;0.00;;;11.20;99.90;;;;;;6151273;23;20081;-91
2023/02/21 11:28:06;;;;;;;0.00;0.00;;;11.30;99.90;;;;;;6148957;23;20012;-91
2023/02/21 11:30:36;;;;;;;0.00;0.00;;;11.40;99.90;;;;;;6151096;23;20013;-91
2023/02/21 11:33:03;;;;;;;0.08;0.08;;;;;;;;;;6151877;23;20402;-91
2023/02/21 11:35:42;;;;;;;0.00;0.00;;;11.50;99.90;;;;;;6149410;23;20005;-90
2023/02/21 11:38:35;;;;;;;0.00;0.00;;;11.70;99.90;;;;;;6153332;23;20005;-90
2023/02/21 11:41:13;;;;;;;0.00;0.00;;;11.60;99.90;;;;;;6176457;23;20001;-91
2023/02/21 11:43:45;;;;;;;0.00;0.00;;;11.60;99.90;;;;;;6175820;23;20141;-90
2023/02/21 11:46:28;;;;;;;0.00;0.00;;;11.60;99.90;;;;;;6149394;23;20056;-89
2023/02/21 11:49:10;;;;;;;0.00;0.00;;;11.20;99.90;;;;;;6150237;23;20084;-90
2023/02/21 11:51:50;;;;;;;0.00;0.00;;;11.50;99.90;;;;;;6149300;23;20060;-90
2023/02/21 11:54:18;;;;;;;0.00;0.00;;;11.50;99.90;;;;;;6151419;23;20009;-89
2023/02/21 11:56:43;;;;;;;0.10;0.10;;;;;;;;;;6153444;23;20002;-90
2023/02/21 11:59:25;;;;;;;0.00;0.00;;;11.50;99.90;;;;;;6151511;23;20008;-89
2023/02/21 12:02:21;;;;;;;0.00;0.00;;;11.60;99.90;;;;;;6151149;23;20037;-90
2023/02/21 12:05:23;;;;;;;0.00;0.00;;;11.50;99.90;;;;;;6149468;23;20430;-90
2023/02/21 12:08:17;;;;;;;0.00;0.00;;;11.50;99.90;;;;;;6050391;23;20527;-89
2023/02/21 12:10:58;;;;;;;0.00;0.00;;;11.40;99.90;;;;;;6177280;23;20005;-89
2023/02/21 12:13:37;;;;;;;0.00;0.00;;;11.30;99.90;;;;;;6151523;23;20447;-90
2023/02/21 12:16:32;;;;;;;0.00;0.00;;;12.30;99.90;;;;;;6176030;23;20005;-90
2023/02/21 12:19:00;;;;;;;0.00;0.00;;;11.50;99.90;;;;;;6152334;23;20005;-89
2023/02/21 12:21:44;;;;;;;0.00;0.00;;;11.40;99.90;;;;;;6151651;23;20025;-90
2023/02/21 12:24:48;;;;;;;0.00;0.00;;;11.60;99.90;;;;;;6151229;23;20006;-89
2023/02/21 12:27:13;;;;;;;0.00;0.00;;;11.40;99.90;;;;;;6040561;23;20003;-90
2023/02/21 12:30:14;;;;;;;0.00;0.00;;;11.50;99.90;;;;;;6059975;23;20094;-90
2023/02/21 12:32:39;;;;;;;0.00;0.00;;;11.60;99.90;;;;;;6138141;23;20013;-90
2023/02/21 12:35:39;;;;;;;0.00;0.00;;;11.80;99.90;;;;;;6148782;23;20005;-90
2023/02/21 12:38:17;;;;;;;;;;;11.70;99.90;;;;;;6176268;23;20002;-90
2023/02/21 12:41:25;;;;;;;0.05;0.05;;;11.80;99.90;;;;;;6175263;23;19900;-90
2023/02/21 12:44:07;;;;;;;0.00;0.00;;;11.70;99.90;;;;;;6148976;23;20084;-92
2023/02/21 12:46:59;;;;;;;0.00;0.00;;;11.60;99.90;;;;;;6151449;23;20328;-91
2023/02/21 12:49:28;;;;;;;0.00;0.00;;;11.60;99.90;;;;;;6172499;23;20002;-91
2023/02/21 12:52:14;;;;;;;0.00;0.00;;;11.40;99.90;;;;;;6147569;23;20143;-92
2023/02/21 12:54:46;;;;;;;0.00;0.00;;;11.40;99.90;;;;;;6149157;23;20014;-91
2023/02/21 12:57:37;;;;;;;0.00;0.00;;;13.20;99.90;;;;;;6144806;23;20037;-90
2023/02/21 13:00:21;;;;;;;0.00;0.00;;;11.40;99.90;;;;;;6159716;23;20008;-90
2023/02/21 13:02:59;;;;;;;0.00;0.00;;;11.40;99.90;;;;;;6146520;23;20006;-92
2023/02/21 13:05:44;;;;;;;0.00;0.00;;;11.40;99.90;;;;;;6144634;23;20006;-92
2023/02/21 13:08:31;;;;;;;0.00;0.00;;;11.40;99.90;;;;;;6147633;23;20211;-91
2023/02/21 13:11:06;;;;;;;0.00;0.00;;;11.40;99.90;;;;;;6147551;23;20060;-92
2023/02/21 13:13:33;;;;;;;0.00;0.00;;;;;;;;;;6147270;23;20017;-92
2023/02/21 13:16:05;;;;;;;0.00;0.00;;;11.50;99.90;;;;;;6145625;23;20037;-93
2023/02/21 13:18:39;;;;;;;0.00;0.00;;;11.60;99.90;;;;;;6171974;23;20458;-91
2023/02/21 13:21:30;;;;;;;0.00;0.00;;;11.70;99.90;;;;;;6147057;23;20189;-91
2023/02/21 13:27:08;;;;;;;0.00;0.00;;;11.50;99.90;;;;;;6148974;23;20012;-92
2023/02/21 13:29:35;;;;;;;;;;;11.50;99.90;;;;;;6144511;23;20002;-92
2023/02/21 13:32:07;;;;;;;0.00;0.00;;;11.40;99.90;;;;;;6147014;23;19940;-91
2023/02/21 13:34:41;;;;;;;0.00;0.00;;;11.40;99.90;;;;;;6147482;23;20005;-91
2023/02/21 13:37:15;;;;;;;0.10;0.10;;;11.30;99.90;;;;;;6149204;23;20148;-91
2023/02/21 13:39:50;;;;;;;0.00;0.00;;;11.30;99.90;;;;;;6150457;23;20006;-91
2023/02/21 13:42:19;;;;;;;0.00;0.00;;;11.30;99.90;;;;;;6148459;23;20016;-91
2023/02/21 13:44:52;;;;;;;0.00;0.00;;;11.30;99.90;;;;;;6147073;23;20005;-91
2023/02/21 13:47:20;;;;;;;0.00;0.00;;;11.20;99.90;;;;;;6146423;23;20008;-92
2023/02/21 13:49:49;;;;;;;0.00;0.00;;;10.40;99.90;;;;;;6146691;23;20397;-92
2023/02/21 13:52:21;;;;;;;0.00;0.00;;;11.40;99.90;;;;;;6145240;23;20414;-93
2023/02/21 13:55:14;;;;;;;0.00;0.00;;;11.10;99.90;;;;;;6144332;23;20001;-91
2023/02/21 14:00:53;;;;;;;0.00;0.00;;;11.40;99.90;;;;;;6141846;23;20033;-94
2023/02/21 14:03:26;;;;;;;0.00;0.00;;;11.40;99.90;;;;;;6184719;23;20065;-93
2023/02/21 14:05:55;;;;;;;0.00;0.00;;;11.50;99.90;;;;;;6139594;23;20009;-93
2023/02/21 14:08:41;;;;;;;0.00;0.00;;;11.50;99.90;;;;;;6137908;23;20005;-93
2023/02/21 14:11:11;;;;;;;0.00;0.00;;;;;;;;;;6185752;23;20009;-93
2023/02/21 14:18:59;;;;;;;0.00;0.00;;;11.40;99.90;;;;;;6131859;23;20030;-93
2023/02/21 14:21:47;;;;;;;0.00;0.00;;;11.40;99.90;;;;;;6150231;23;20042;-93
2023/02/21 14:24:18;;;;;;;0.00;0.00;;;11.40;99.90;;;;;;6154351;23;20002;-93
2023/02/21 14:27:24;;;;;;;0.00;0.00;;;11.40;99.90;;;;;;6156822;23;20006;-93
2023/02/21 14:40:08;;;;;;;0.00;0.00;;;11.20;99.90;;;;;;6126383;23;20022;-90
2023/02/21 14:42:55;;;;;;;0.00;0.00;;;11.20;99.90;;;;;;6125836;23;20092;-89
2023/02/21 14:45:50;;;;;;;0.00;0.00;;;11.10;99.90;;;;;;6126365;23;20006;-89
2023/02/21 14:48:40;;;;;;;0.00;0.00;;;11.20;99.90;;;;;;6150418;23;20363;-89
2023/02/21 14:51:46;;;;;;;0.00;0.00;;;11.00;99.90;;;;;;6126498;23;20006;-89
2023/02/21 14:54:58;;;;;;;0.10;0.10;;;11.00;99.90;;;;;;6128491;23;20085;-89
2023/02/21 14:57:41;;;;;;;0.00;0.00;;;10.90;99.90;;;;;;6099108;23;20036;-89
2023/02/21 15:00:35;;;;;;;0.00;0.00;;;10.90;99.90;;;;;;6150879;23;19998;-88
2023/02/21 15:03:08;;;;;;;0.00;0.00;;;10.90;99.90;;;;;;6149159;23;20500;-89
2023/02/21 15:05:48;;;;;;;0.00;0.00;;;10.90;99.90;;;;;;6150072;23;20358;-90
2023/02/21 15:08:16;;;;;;;;;;;10.90;99.90;;;;;;6125235;23;20006;-88
2023/02/21 15:10:47;;;;;;;0.00;0.00;;;10.90;99.90;;;;;;6127346;23;19901;-87
2023/02/21 15:13:31;;;;;;;0.10;0.10;;;10.90;99.90;;;;;;6127552;23;20008;-89
2023/02/21 15:16:03;;;;;;;0.00;0.00;;;10.80;99.90;;;;;;6149172;23;20009;-89
2023/02/21 15:18:32;;;;;;;0.00;0.00;;;10.70;99.90;;;;;;6151122;23;20006;-89
2023/02/21 15:21:19;;;;;;;0.00;0.00;;;10.60;99.90;;;;;;6151141;23;20002;-89
2023/02/21 15:23:47;;;;;;;0.00;0.00;;;10.60;99.90;;;;;;6151572;23;20002;-87
2023/02/21 15:26:20;;;;;;;0.00;0.00;;;10.50;99.90;;;;;;6151559;23;20113;-89
2023/02/21 15:29:01;;;;;;;0.00;0.00;;;11.10;99.90;;;;;;6126932;23;20006;-89
2023/02/21 15:31:27;;;;;;;0.00;0.00;;;;;;;;;;6147552;23;20018;-88
2023/02/21 15:33:53;;;;;;;0.00;0.00;;;10.50;99.90;;;;;;6126431;23;20014;-90
2023/02/21 15:36:22;;;;;;;0.00;0.00;;;10.30;99.90;;;;;;6150976;23;20366;-89
2023/02/21 15:39:13;;;;;;;0.00;0.00;;;10.50;99.90;;;;;;6150349;23;20010;-89
2023/02/21 15:41:44;;;;;;;0.00;0.00;;;10.50;99.90;;;;;;6150245;23;20430;-89
2023/02/21 15:44:25;;;;;;;0.00;0.00;;;10.50;99.90;;;;;;6127272;23;20073;-89
2023/02/21 15:47:13;;;;;;;0.00;0.00;;;10.50;99.90;;;;;;6149075;23;20034;-89
2023/02/21 15:50:05;;;;;;;0.00;0.00;;;10.50;99.90;;;;;;6150036;23;20033;-89
2023/02/21 15:52:47;;;;;;;0.00;0.00;;;10.40;99.90;;;;;;6127550;23;20002;-90
2023/02/21 15:55:28;;;;;;;0.00;0.00;;;10.40;99.90;;;;;;6150070;23;20047;-90
2023/02/21 15:57:59;;;;;;;0.00;0.00;;;10.30;99.90;;;;;;6149424;23;20160;-90
2023/02/21 16:00:35;;;;;;;0.00;0.00;;;10.40;99.90;;;;;;6150947;23;20073;-89
2023/02/21 16:03:26;;;;;;;0.00;0.00;;;10.30;99.90;;;;;;6123696;23;20006;-89
2023/02/21 16:05:52;;;;;;;0.00;0.00;;;10.30;99.90;;;;;;6124123;23;20006;-89
2023/02/21 16:08:18;;;;;;;0.00;0.00;;;;;;;;;;6148884;23;20010;-89
2023/02/21 16:10:44;;;;;;;0.00;0.00;;;10.40;99.90;;;;;;6120408;23;20048;-90
2023/02/21 16:13:11;;;;;;;0.00;0.00;;;10.40;99.90;;;;;;6147889;23;20084;-90
2023/02/21 16:15:39;;;;;;;0.00;0.00;;;10.30;99.90;;;;;;6148553;23;20010;-89
2023/02/21 16:18:07;;;;;;;0.00;0.00;;;10.40;99.90;;;;;;6149330;23;20350;-89
2023/02/21 16:20:38;;;;;;;0.00;0.00;;;10.40;99.90;;;;;;6125628;23;20056;-90